sensor_id;sensor_type;location;lat;lon;timestamp;P1;durP1;ratioP1;P2;durP2;ratioP2
21999;SDS011;11164;48.818;2.322;2023-08-07T00:02:08;6.63;;;3.00;;
21999;SDS011;11164;48.818;2.322;2023-08-07T00:04:33;4.03;;;1.27;;
21999;SDS011;11164;48.818;2.322;2023-08-07T00:06:59;7.28;;;1.33;;
21999;SDS011;11164;48.818;2.322;2023-08-07T00:09:24;4.57;;;1.40;;
21999;SDS011;11164;48.818;2.322;2023-08-07T00:11:49;5.25;;;1.60;;
21999;SDS011;11164;48.818;2.322;2023-08-07T00:14:15;8.43;;;1.30;;
21999;SDS011;11164;48.818;2.322;2023-08-07T00:16:41;4.18;;;1.27;;
21999;SDS011;11164;48.818;2.322;2023-08-07T00:19:06;4.80;;;1.40;;
21999;SDS011;11164;48.818;2.322;2023-08-07T00:21:31;4.60;;;1.30;;
21999;SDS011;11164;48.818;2.322;2023-08-07T00:23:57;4.63;;;1.10;;
21999;SDS011;11164;48.818;2.322;2023-08-07T00:26:22;3.55;;;1.38;;
21999;SDS011;11164;48.818;2.322;2023-08-07T00:28:47;7.20;;;1.50;;
21999;SDS011;11164;48.818;2.322;2023-08-07T00:31:13;5.50;;;1.50;;
21999;SDS011;11164;48.818;2.322;2023-08-07T00:33:38;4.88;;;1.25;;
21999;SDS011;11164;48.818;2.322;2023-08-07T00:36:03;7.68;;;1.30;;
21999;SDS011;11164;48.818;2.322;2023-08-07T00:38:29;7.63;;;1.45;;
21999;SDS011;11164;48.818;2.322;2023-08-07T00:40:54;5.95;;;1.27;;
21999;SDS011;11164;48.818;2.322;2023-08-07T00:43:20;5.43;;;1.20;;
21999;SDS011;11164;48.818;2.322;2023-08-07T00:45:46;7.55;;;1.40;;
21999;SDS011;11164;48.818;2.322;2023-08-07T00:48:14;5.25;;;1.40;;
21999;SDS011;11164;48.818;2.322;2023-08-07T00:50:41;6.60;;;1.40;;
21999;SDS011;11164;48.818;2.322;2023-08-07T00:53:07;4.90;;;1.20;;
21999;SDS011;11164;48.818;2.322;2023-08-07T00:55:33;4.00;;;1.25;;
21999;SDS011;11164;48.818;2.322;2023-08-07T00:57:59;3.78;;;1.08;;
21999;SDS011;11164;48.818;2.322;2023-08-07T01:00:25;7.38;;;1.50;;
21999;SDS011;11164;48.818;2.322;2023-08-07T01:02:54;5.95;;;1.70;;
21999;SDS011;11164;48.818;2.322;2023-08-07T01:05:21;5.07;;;1.20;;
21999;SDS011;11164;48.818;2.322;2023-08-07T01:07:48;6.03;;;1.38;;
21999;SDS011;11164;48.818;2.322;2023-08-07T01:10:14;4.00;;;1.30;;
21999;SDS011;11164;48.818;2.322;2023-08-07T01:12:45;5.53;;;1.40;;
21999;SDS011;11164;48.818;2.322;2023-08-07T01:15:19;6.40;;;1.55;;
21999;SDS011;11164;48.818;2.322;2023-08-07T01:17:49;6.28;;;1.52;;
21999;SDS011;11164;48.818;2.322;2023-08-07T01:20:16;6.03;;;1.60;;
21999;SDS011;11164;48.818;2.322;2023-08-07T01:22:42;5.32;;;1.38;;
21999;SDS011;11164;48.818;2.322;2023-08-07T01:25:07;6.00;;;1.55;;
21999;SDS011;11164;48.818;2.322;2023-08-07T01:30:20;3.03;;;1.30;;
21999;SDS011;11164;48.818;2.322;2023-08-07T01:35:46;6.18;;;1.50;;
21999;SDS011;11164;48.818;2.322;2023-08-07T01:38:14;8.95;;;1.67;;
21999;SDS011;11164;48.818;2.322;2023-08-07T01:40:40;6.85;;;1.52;;
21999;SDS011;11164;48.818;2.322;2023-08-07T01:43:07;5.38;;;1.50;;
21999;SDS011;11164;48.818;2.322;2023-08-07T01:45:32;7.00;;;1.70;;
21999;SDS011;11164;48.818;2.322;2023-08-07T01:47:58;6.30;;;1.52;;
21999;SDS011;11164;48.818;2.322;2023-08-07T01:50:24;6.18;;;1.42;;
21999;SDS011;11164;48.818;2.322;2023-08-07T01:52:49;5.50;;;1.60;;
21999;SDS011;11164;48.818;2.322;2023-08-07T01:55:15;8.13;;;1.77;;
21999;SDS011;11164;48.818;2.322;2023-08-07T01:57:42;4.70;;;1.63;;
21999;SDS011;11164;48.818;2.322;2023-08-07T02:00:07;7.28;;;1.70;;
21999;SDS011;11164;48.818;2.322;2023-08-07T02:02:34;6.50;;;1.60;;
21999;SDS011;11164;48.818;2.322;2023-08-07T02:05:00;5.45;;;1.40;;
21999;SDS011;11164;48.818;2.322;2023-08-07T02:07:25;5.30;;;1.77;;
21999;SDS011;11164;48.818;2.322;2023-08-07T02:09:50;5.07;;;1.58;;
21999;SDS011;11164;48.818;2.322;2023-08-07T02:12:16;5.78;;;1.48;;
21999;SDS011;11164;48.818;2.322;2023-08-07T02:14:41;5.28;;;1.70;;
21999;SDS011;11164;48.818;2.322;2023-08-07T02:17:06;7.53;;;1.75;;
21999;SDS011;11164;48.818;2.322;2023-08-07T02:19:32;7.15;;;1.58;;
21999;SDS011;11164;48.818;2.322;2023-08-07T02:21:57;7.68;;;1.52;;
21999;SDS011;11164;48.818;2.322;2023-08-07T02:24:23;7.57;;;1.80;;
21999;SDS011;11164;48.818;2.322;2023-08-07T02:26:48;6.20;;;1.65;;
21999;SDS011;11164;48.818;2.322;2023-08-07T02:29:13;7.00;;;1.88;;
21999;SDS011;11164;48.818;2.322;2023-08-07T02:31:39;6.70;;;1.80;;
21999;SDS011;11164;48.818;2.322;2023-08-07T02:34:04;5.80;;;1.73;;
21999;SDS011;11164;48.818;2.322;2023-08-07T02:36:29;6.90;;;2.45;;
21999;SDS011;11164;48.818;2.322;2023-08-07T02:38:55;6.78;;;2.35;;
21999;SDS011;11164;48.818;2.322;2023-08-07T02:41:20;6.85;;;2.03;;
21999;SDS011;11164;48.818;2.322;2023-08-07T02:43:46;8.55;;;1.95;;
21999;SDS011;11164;48.818;2.322;2023-08-07T02:46:11;5.88;;;1.80;;
21999;SDS011;11164;48.818;2.322;2023-08-07T02:48:36;5.35;;;1.90;;
21999;SDS011;11164;48.818;2.322;2023-08-07T02:51:02;6.72;;;2.03;;
21999;SDS011;11164;48.818;2.322;2023-08-07T02:53:27;6.05;;;1.88;;
21999;SDS011;11164;48.818;2.322;2023-08-07T02:55:53;8.18;;;1.67;;
21999;SDS011;11164;48.818;2.322;2023-08-07T02:58:18;7.82;;;2.30;;
21999;SDS011;11164;48.818;2.322;2023-08-07T03:00:43;8.73;;;2.08;;
21999;SDS011;11164;48.818;2.322;2023-08-07T03:03:09;7.78;;;1.95;;
21999;SDS011;11164;48.818;2.322;2023-08-07T03:05:34;7.80;;;1.75;;
21999;SDS011;11164;48.818;2.322;2023-08-07T03:08:00;6.78;;;1.75;;
21999;SDS011;11164;48.818;2.322;2023-08-07T03:10:26;9.05;;;1.90;;
21999;SDS011;11164;48.818;2.322;2023-08-07T03:12:51;7.82;;;1.92;;
21999;SDS011;11164;48.818;2.322;2023-08-07T03:15:17;7.18;;;2.08;;
21999;SDS011;11164;48.818;2.322;2023-08-07T03:17:42;6.35;;;2.00;;
21999;SDS011;11164;48.818;2.322;2023-08-07T03:20:08;9.40;;;2.40;;
21999;SDS011;11164;48.818;2.322;2023-08-07T03:22:34;6.15;;;1.70;;
21999;SDS011;11164;48.818;2.322;2023-08-07T03:24:59;9.88;;;2.40;;
21999;SDS011;11164;48.818;2.322;2023-08-07T03:27:25;9.20;;;2.40;;
21999;SDS011;11164;48.818;2.322;2023-08-07T03:29:50;6.18;;;2.25;;
21999;SDS011;11164;48.818;2.322;2023-08-07T03:32:16;7.32;;;2.13;;
21999;SDS011;11164;48.818;2.322;2023-08-07T03:34:42;7.20;;;1.88;;
21999;SDS011;11164;48.818;2.322;2023-08-07T03:37:07;7.60;;;2.10;;
21999;SDS011;11164;48.818;2.322;2023-08-07T03:39:32;7.00;;;1.95;;
21999;SDS011;11164;48.818;2.322;2023-08-07T03:41:58;8.30;;;2.13;;
21999;SDS011;11164;48.818;2.322;2023-08-07T03:44:23;6.82;;;2.20;;
21999;SDS011;11164;48.818;2.322;2023-08-07T03:46:48;8.77;;;2.25;;
21999;SDS011;11164;48.818;2.322;2023-08-07T03:49:14;5.20;;;1.73;;
21999;SDS011;11164;48.818;2.322;2023-08-07T03:51:39;7.95;;;2.05;;
21999;SDS011;11164;48.818;2.322;2023-08-07T03:54:05;9.20;;;2.20;;
21999;SDS011;11164;48.818;2.322;2023-08-07T03:56:31;5.53;;;1.88;;
21999;SDS011;11164;48.818;2.322;2023-08-07T03:59:01;8.90;;;2.40;;
21999;SDS011;11164;48.818;2.322;2023-08-07T04:01:27;9.23;;;2.38;;
21999;SDS011;11164;48.818;2.322;2023-08-07T04:03:53;7.10;;;2.10;;
21999;SDS011;11164;48.818;2.322;2023-08-07T04:06:18;6.53;;;2.30;;
21999;SDS011;11164;48.818;2.322;2023-08-07T04:08:46;6.38;;;2.35;;
21999;SDS011;11164;48.818;2.322;2023-08-07T04:11:12;8.02;;;2.30;;
21999;SDS011;11164;48.818;2.322;2023-08-07T04:13:38;8.18;;;2.22;;
21999;SDS011;11164;48.818;2.322;2023-08-07T04:16:03;8.50;;;2.15;;
21999;SDS011;11164;48.818;2.322;2023-08-07T04:18:29;9.55;;;2.70;;
21999;SDS011;11164;48.818;2.322;2023-08-07T04:20:58;8.88;;;2.83;;
21999;SDS011;11164;48.818;2.322;2023-08-07T04:23:24;9.98;;;2.30;;
21999;SDS011;11164;48.818;2.322;2023-08-07T04:25:50;11.93;;;2.30;;
21999;SDS011;11164;48.818;2.322;2023-08-07T04:28:17;6.00;;;2.00;;
21999;SDS011;11164;48.818;2.322;2023-08-07T04:30:43;5.10;;;1.98;;
21999;SDS011;11164;48.818;2.322;2023-08-07T04:33:08;6.57;;;2.30;;
21999;SDS011;11164;48.818;2.322;2023-08-07T04:35:33;12.35;;;2.70;;
21999;SDS011;11164;48.818;2.322;2023-08-07T04:37:59;8.27;;;2.40;;
21999;SDS011;11164;48.818;2.322;2023-08-07T04:40:25;8.27;;;2.25;;
21999;SDS011;11164;48.818;2.322;2023-08-07T04:42:50;10.25;;;2.50;;
21999;SDS011;11164;48.818;2.322;2023-08-07T04:45:16;12.82;;;2.63;;
21999;SDS011;11164;48.818;2.322;2023-08-07T04:47:41;12.13;;;2.38;;
21999;SDS011;11164;48.818;2.322;2023-08-07T04:50:07;10.70;;;2.53;;
21999;SDS011;11164;48.818;2.322;2023-08-07T04:52:33;9.30;;;2.50;;
21999;SDS011;11164;48.818;2.322;2023-08-07T04:54:58;12.10;;;2.90;;
21999;SDS011;11164;48.818;2.322;2023-08-07T04:57:24;10.02;;;3.00;;
21999;SDS011;11164;48.818;2.322;2023-08-07T04:59:49;13.43;;;3.03;;
21999;SDS011;11164;48.818;2.322;2023-08-07T05:02:15;8.98;;;2.97;;
21999;SDS011;11164;48.818;2.322;2023-08-07T05:04:41;13.55;;;3.30;;
21999;SDS011;11164;48.818;2.322;2023-08-07T05:07:06;9.18;;;2.90;;
21999;SDS011;11164;48.818;2.322;2023-08-07T05:09:31;8.90;;;2.70;;
21999;SDS011;11164;48.818;2.322;2023-08-07T05:11:57;6.97;;;2.78;;
21999;SDS011;11164;48.818;2.322;2023-08-07T05:14:22;12.27;;;3.10;;
21999;SDS011;11164;48.818;2.322;2023-08-07T05:16:47;11.68;;;3.47;;
21999;SDS011;11164;48.818;2.322;2023-08-07T05:19:13;10.07;;;3.28;;
21999;SDS011;11164;48.818;2.322;2023-08-07T05:21:38;11.10;;;3.33;;
21999;SDS011;11164;48.818;2.322;2023-08-07T05:24:03;10.73;;;2.78;;
21999;SDS011;11164;48.818;2.322;2023-08-07T05:26:29;11.95;;;3.60;;
21999;SDS011;11164;48.818;2.322;2023-08-07T05:28:55;12.98;;;3.28;;
21999;SDS011;11164;48.818;2.322;2023-08-07T05:31:23;12.23;;;3.63;;
21999;SDS011;11164;48.818;2.322;2023-08-07T05:33:49;11.70;;;3.20;;
21999;SDS011;11164;48.818;2.322;2023-08-07T05:36:14;9.35;;;3.50;;
21999;SDS011;11164;48.818;2.322;2023-08-07T05:38:40;8.80;;;3.55;;
21999;SDS011;11164;48.818;2.322;2023-08-07T05:41:05;9.98;;;3.72;;
21999;SDS011;11164;48.818;2.322;2023-08-07T05:43:31;12.30;;;4.20;;
21999;SDS011;11164;48.818;2.322;2023-08-07T05:45:56;8.23;;;3.83;;
21999;SDS011;11164;48.818;2.322;2023-08-07T05:48:22;14.27;;;4.05;;
21999;SDS011;11164;48.818;2.322;2023-08-07T05:50:47;16.15;;;4.63;;
21999;SDS011;11164;48.818;2.322;2023-08-07T05:53:12;12.50;;;5.30;;
21999;SDS011;11164;48.818;2.322;2023-08-07T05:55:40;17.02;;;5.75;;
21999;SDS011;11164;48.818;2.322;2023-08-07T05:58:07;17.48;;;5.28;;
21999;SDS011;11164;48.818;2.322;2023-08-07T06:00:32;13.68;;;5.22;;
21999;SDS011;11164;48.818;2.322;2023-08-07T06:02:57;15.63;;;6.43;;
21999;SDS011;11164;48.818;2.322;2023-08-07T06:05:23;19.00;;;5.18;;
21999;SDS011;11164;48.818;2.322;2023-08-07T06:07:48;19.73;;;5.43;;
21999;SDS011;11164;48.818;2.322;2023-08-07T06:10:14;16.67;;;6.47;;
21999;SDS011;11164;48.818;2.322;2023-08-07T06:12:39;19.95;;;6.53;;
21999;SDS011;11164;48.818;2.322;2023-08-07T06:15:04;14.10;;;5.72;;
21999;SDS011;11164;48.818;2.322;2023-08-07T06:17:30;15.10;;;6.35;;
21999;SDS011;11164;48.818;2.322;2023-08-07T06:19:55;14.05;;;5.95;;
21999;SDS011;11164;48.818;2.322;2023-08-07T06:22:21;13.65;;;6.07;;
21999;SDS011;11164;48.818;2.322;2023-08-07T06:24:46;14.75;;;6.20;;
21999;SDS011;11164;48.818;2.322;2023-08-07T06:27:11;16.88;;;5.85;;
21999;SDS011;11164;48.818;2.322;2023-08-07T06:29:37;13.82;;;5.55;;
21999;SDS011;11164;48.818;2.322;2023-08-07T06:32:02;13.32;;;5.10;;
21999;SDS011;11164;48.818;2.322;2023-08-07T06:34:28;13.38;;;5.93;;
21999;SDS011;11164;48.818;2.322;2023-08-07T06:36:53;15.07;;;5.40;;
21999;SDS011;11164;48.818;2.322;2023-08-07T06:39:19;16.20;;;5.75;;
21999;SDS011;11164;48.818;2.322;2023-08-07T06:41:44;14.30;;;5.32;;
21999;SDS011;11164;48.818;2.322;2023-08-07T06:44:09;11.80;;;5.00;;
21999;SDS011;11164;48.818;2.322;2023-08-07T06:46:35;11.10;;;4.97;;
21999;SDS011;11164;48.818;2.322;2023-08-07T06:49:00;10.65;;;5.03;;
21999;SDS011;11164;48.818;2.322;2023-08-07T06:51:25;14.85;;;5.40;;
21999;SDS011;11164;48.818;2.322;2023-08-07T06:53:51;15.88;;;5.20;;
21999;SDS011;11164;48.818;2.322;2023-08-07T06:56:16;10.13;;;5.53;;
21999;SDS011;11164;48.818;2.322;2023-08-07T06:58:42;12.82;;;5.75;;
21999;SDS011;11164;48.818;2.322;2023-08-07T07:01:07;12.82;;;5.15;;
21999;SDS011;11164;48.818;2.322;2023-08-07T07:03:32;13.27;;;5.07;;
21999;SDS011;11164;48.818;2.322;2023-08-07T07:05:58;12.60;;;4.63;;
21999;SDS011;11164;48.818;2.322;2023-08-07T07:08:23;9.35;;;4.40;;
21999;SDS011;11164;48.818;2.322;2023-08-07T07:10:48;14.65;;;5.20;;
21999;SDS011;11164;48.818;2.322;2023-08-07T07:13:14;12.32;;;5.30;;
21999;SDS011;11164;48.818;2.322;2023-08-07T07:15:39;9.98;;;4.63;;
21999;SDS011;11164;48.818;2.322;2023-08-07T07:18:05;12.13;;;5.15;;
21999;SDS011;11164;48.818;2.322;2023-08-07T07:20:30;13.20;;;4.93;;
21999;SDS011;11164;48.818;2.322;2023-08-07T07:22:56;9.73;;;4.60;;
21999;SDS011;11164;48.818;2.322;2023-08-07T07:25:21;8.57;;;4.60;;
21999;SDS011;11164;48.818;2.322;2023-08-07T07:27:46;11.93;;;4.38;;
21999;SDS011;11164;48.818;2.322;2023-08-07T07:30:12;13.18;;;4.80;;
21999;SDS011;11164;48.818;2.322;2023-08-07T07:32:37;12.55;;;5.38;;
21999;SDS011;11164;48.818;2.322;2023-08-07T07:35:03;9.13;;;5.05;;
21999;SDS011;11164;48.818;2.322;2023-08-07T07:37:29;12.38;;;4.70;;
21999;SDS011;11164;48.818;2.322;2023-08-07T07:39:55;11.55;;;4.78;;
21999;SDS011;11164;48.818;2.322;2023-08-07T07:42:20;10.02;;;4.90;;
21999;SDS011;11164;48.818;2.322;2023-08-07T07:44:46;13.25;;;4.80;;
21999;SDS011;11164;48.818;2.322;2023-08-07T07:47:11;11.10;;;4.53;;
21999;SDS011;11164;48.818;2.322;2023-08-07T07:49:36;13.48;;;4.75;;
21999;SDS011;11164;48.818;2.322;2023-08-07T07:52:02;11.50;;;5.38;;
21999;SDS011;11164;48.818;2.322;2023-08-07T07:54:28;12.10;;;4.30;;
21999;SDS011;11164;48.818;2.322;2023-08-07T07:56:53;11.68;;;4.40;;
21999;SDS011;11164;48.818;2.322;2023-08-07T07:59:20;10.60;;;4.28;;
21999;SDS011;11164;48.818;2.322;2023-08-07T08:01:45;9.07;;;4.38;;
21999;SDS011;11164;48.818;2.322;2023-08-07T08:04:10;10.57;;;4.65;;
21999;SDS011;11164;48.818;2.322;2023-08-07T08:06:36;10.63;;;4.50;;
21999;SDS011;11164;48.818;2.322;2023-08-07T08:09:01;10.63;;;4.18;;
21999;SDS011;11164;48.818;2.322;2023-08-07T08:11:29;6.80;;;4.10;;
21999;SDS011;11164;48.818;2.322;2023-08-07T08:13:55;10.68;;;4.40;;
21999;SDS011;11164;48.818;2.322;2023-08-07T08:16:20;11.30;;;4.78;;
21999;SDS011;11164;48.818;2.322;2023-08-07T08:18:45;10.60;;;4.32;;
21999;SDS011;11164;48.818;2.322;2023-08-07T08:21:11;10.98;;;3.90;;
21999;SDS011;11164;48.818;2.322;2023-08-07T08:23:36;13.48;;;4.00;;
21999;SDS011;11164;48.818;2.322;2023-08-07T08:26:01;10.70;;;3.97;;
21999;SDS011;11164;48.818;2.322;2023-08-07T08:28:27;15.00;;;4.10;;
21999;SDS011;11164;48.818;2.322;2023-08-07T08:30:52;11.18;;;4.10;;
21999;SDS011;11164;48.818;2.322;2023-08-07T08:33:17;9.07;;;3.72;;
21999;SDS011;11164;48.818;2.322;2023-08-07T08:35:43;12.45;;;3.80;;
21999;SDS011;11164;48.818;2.322;2023-08-07T08:38:08;10.13;;;3.92;;
21999;SDS011;11164;48.818;2.322;2023-08-07T08:40:34;8.50;;;4.03;;
21999;SDS011;11164;48.818;2.322;2023-08-07T08:43:02;8.23;;;3.88;;
21999;SDS011;11164;48.818;2.322;2023-08-07T08:45:30;8.80;;;3.40;;
21999;SDS011;11164;48.818;2.322;2023-08-07T08:48:00;8.35;;;3.10;;
21999;SDS011;11164;48.818;2.322;2023-08-07T08:50:27;8.65;;;3.63;;
21999;SDS011;11164;48.818;2.322;2023-08-07T08:52:53;8.23;;;3.03;;
21999;SDS011;11164;48.818;2.322;2023-08-07T08:55:20;8.70;;;3.10;;
21999;SDS011;11164;48.818;2.322;2023-08-07T08:57:46;6.18;;;3.45;;
21999;SDS011;11164;48.818;2.322;2023-08-07T09:00:13;8.07;;;3.85;;
21999;SDS011;11164;48.818;2.322;2023-08-07T09:02:51;10.05;;;3.33;;
21999;SDS011;11164;48.818;2.322;2023-08-07T09:05:17;7.13;;;3.40;;
21999;SDS011;11164;48.818;2.322;2023-08-07T09:07:45;9.80;;;3.60;;
21999;SDS011;11164;48.818;2.322;2023-08-07T09:10:12;6.32;;;3.08;;
21999;SDS011;11164;48.818;2.322;2023-08-07T09:12:53;6.90;;;2.85;;
21999;SDS011;11164;48.818;2.322;2023-08-07T09:15:22;7.53;;;3.00;;
21999;SDS011;11164;48.818;2.322;2023-08-07T09:17:48;7.07;;;3.15;;
21999;SDS011;11164;48.818;2.322;2023-08-07T09:20:16;6.45;;;2.80;;
21999;SDS011;11164;48.818;2.322;2023-08-07T09:22:42;8.02;;;3.08;;
21999;SDS011;11164;48.818;2.322;2023-08-07T09:25:08;12.02;;;3.03;;
21999;SDS011;11164;48.818;2.322;2023-08-07T09:27:35;6.45;;;2.70;;
21999;SDS011;11164;48.818;2.322;2023-08-07T09:30:02;5.70;;;2.70;;
21999;SDS011;11164;48.818;2.322;2023-08-07T09:32:28;8.38;;;2.80;;
21999;SDS011;11164;48.818;2.322;2023-08-07T09:34:53;7.57;;;3.05;;
21999;SDS011;11164;48.818;2.322;2023-08-07T09:37:20;4.68;;;2.50;;
21999;SDS011;11164;48.818;2.322;2023-08-07T09:39:45;6.20;;;2.65;;
21999;SDS011;11164;48.818;2.322;2023-08-07T09:42:14;6.63;;;2.80;;
21999;SDS011;11164;48.818;2.322;2023-08-07T09:44:41;6.03;;;2.70;;
21999;SDS011;11164;48.818;2.322;2023-08-07T09:47:14;5.95;;;2.53;;
21999;SDS011;11164;48.818;2.322;2023-08-07T09:49:40;5.85;;;2.70;;
21999;SDS011;11164;48.818;2.322;2023-08-07T09:52:06;5.07;;;2.33;;
21999;SDS011;11164;48.818;2.322;2023-08-07T09:54:33;5.93;;;2.80;;
21999;SDS011;11164;48.818;2.322;2023-08-07T09:57:02;6.55;;;2.63;;
21999;SDS011;11164;48.818;2.322;2023-08-07T09:59:28;4.63;;;1.88;;
21999;SDS011;11164;48.818;2.322;2023-08-07T10:01:54;5.80;;;2.30;;
21999;SDS011;11164;48.818;2.322;2023-08-07T10:04:23;6.95;;;2.88;;
21999;SDS011;11164;48.818;2.322;2023-08-07T10:06:50;7.35;;;2.58;;
21999;SDS011;11164;48.818;2.322;2023-08-07T10:09:16;5.38;;;2.08;;
21999;SDS011;11164;48.818;2.322;2023-08-07T10:11:41;4.93;;;2.10;;
21999;SDS011;11164;48.818;2.322;2023-08-07T10:14:08;6.07;;;2.42;;
21999;SDS011;11164;48.818;2.322;2023-08-07T10:16:34;5.55;;;2.13;;
21999;SDS011;11164;48.818;2.322;2023-08-07T10:19:04;4.65;;;1.90;;
21999;SDS011;11164;48.818;2.322;2023-08-07T10:21:30;6.03;;;2.55;;
21999;SDS011;11164;48.818;2.322;2023-08-07T10:24:00;5.68;;;2.17;;
21999;SDS011;11164;48.818;2.322;2023-08-07T10:26:28;6.10;;;1.92;;
21999;SDS011;11164;48.818;2.322;2023-08-07T10:28:55;5.53;;;1.92;;
21999;SDS011;11164;48.818;2.322;2023-08-07T10:31:22;4.88;;;2.17;;
21999;SDS011;11164;48.818;2.322;2023-08-07T10:33:48;5.05;;;1.95;;
21999;SDS011;11164;48.818;2.322;2023-08-07T10:36:15;5.22;;;1.85;;
21999;SDS011;11164;48.818;2.322;2023-08-07T10:38:42;4.20;;;1.83;;
21999;SDS011;11164;48.818;2.322;2023-08-07T10:41:14;4.82;;;1.75;;
21999;SDS011;11164;48.818;2.322;2023-08-07T10:43:40;4.47;;;1.70;;
21999;SDS011;11164;48.818;2.322;2023-08-07T10:48:39;5.45;;;1.90;;
21999;SDS011;11164;48.818;2.322;2023-08-07T10:51:04;4.22;;;1.80;;
21999;SDS011;11164;48.818;2.322;2023-08-07T10:53:37;5.38;;;1.83;;
21999;SDS011;11164;48.818;2.322;2023-08-07T10:56:29;3.97;;;1.63;;
21999;SDS011;11164;48.818;2.322;2023-08-07T10:58:56;4.85;;;1.60;;
21999;SDS011;11164;48.818;2.322;2023-08-07T11:04:00;3.72;;;1.40;;
21999;SDS011;11164;48.818;2.322;2023-08-07T11:06:31;5.90;;;1.70;;
21999;SDS011;11164;48.818;2.322;2023-08-07T11:08:59;4.07;;;1.55;;
21999;SDS011;11164;48.818;2.322;2023-08-07T11:11:29;6.90;;;1.60;;
21999;SDS011;11164;48.818;2.322;2023-08-07T11:13:55;4.03;;;1.30;;
21999;SDS011;11164;48.818;2.322;2023-08-07T11:16:20;3.80;;;1.63;;
21999;SDS011;11164;48.818;2.322;2023-08-07T11:18:47;4.38;;;1.65;;
21999;SDS011;11164;48.818;2.322;2023-08-07T11:21:13;6.53;;;1.55;;
21999;SDS011;11164;48.818;2.322;2023-08-07T11:23:39;2.53;;;1.13;;
21999;SDS011;11164;48.818;2.322;2023-08-07T11:26:05;4.35;;;1.60;;
21999;SDS011;11164;48.818;2.322;2023-08-07T11:28:31;4.60;;;1.23;;
21999;SDS011;11164;48.818;2.322;2023-08-07T11:30:56;3.80;;;1.50;;
21999;SDS011;11164;48.818;2.322;2023-08-07T11:33:25;4.40;;;1.80;;
21999;SDS011;11164;48.818;2.322;2023-08-07T11:35:51;4.72;;;1.73;;
21999;SDS011;11164;48.818;2.322;2023-08-07T11:41:05;4.47;;;1.50;;
21999;SDS011;11164;48.818;2.322;2023-08-07T11:43:32;5.07;;;1.52;;
21999;SDS011;11164;48.818;2.322;2023-08-07T11:46:00;3.20;;;1.48;;
21999;SDS011;11164;48.818;2.322;2023-08-07T11:48:27;4.07;;;1.45;;
21999;SDS011;11164;48.818;2.322;2023-08-07T11:50:53;3.65;;;1.40;;
21999;SDS011;11164;48.818;2.322;2023-08-07T11:53:20;4.07;;;1.67;;
21999;SDS011;11164;48.818;2.322;2023-08-07T11:55:47;3.85;;;1.63;;
21999;SDS011;11164;48.818;2.322;2023-08-07T11:58:16;4.07;;;1.38;;
21999;SDS011;11164;48.818;2.322;2023-08-07T12:00:43;4.75;;;1.52;;
21999;SDS011;11164;48.818;2.322;2023-08-07T12:03:25;5.13;;;1.80;;
21999;SDS011;11164;48.818;2.322;2023-08-07T12:05:52;4.30;;;1.70;;
21999;SDS011;11164;48.818;2.322;2023-08-07T12:08:18;4.72;;;1.70;;
21999;SDS011;11164;48.818;2.322;2023-08-07T12:10:44;3.53;;;1.40;;
21999;SDS011;11164;48.818;2.322;2023-08-07T12:13:09;3.28;;;1.67;;
21999;SDS011;11164;48.818;2.322;2023-08-07T12:15:37;4.68;;;1.88;;
21999;SDS011;11164;48.818;2.322;2023-08-07T12:18:02;4.35;;;1.77;;
21999;SDS011;11164;48.818;2.322;2023-08-07T12:20:28;6.10;;;2.22;;
21999;SDS011;11164;48.818;2.322;2023-08-07T12:22:53;4.00;;;1.52;;
21999;SDS011;11164;48.818;2.322;2023-08-07T12:25:19;4.68;;;2.00;;
21999;SDS011;11164;48.818;2.322;2023-08-07T12:27:44;4.85;;;1.70;;
21999;SDS011;11164;48.818;2.322;2023-08-07T12:30:12;5.43;;;1.70;;
21999;SDS011;11164;48.818;2.322;2023-08-07T12:32:38;5.07;;;1.77;;
21999;SDS011;11164;48.818;2.322;2023-08-07T12:35:03;3.20;;;1.60;;
21999;SDS011;11164;48.818;2.322;2023-08-07T12:37:33;5.90;;;2.00;;
21999;SDS011;11164;48.818;2.322;2023-08-07T12:39:58;4.35;;;1.80;;
21999;SDS011;11164;48.818;2.322;2023-08-07T12:42:23;8.88;;;2.10;;
21999;SDS011;11164;48.818;2.322;2023-08-07T12:44:48;3.63;;;1.73;;
21999;SDS011;11164;48.818;2.322;2023-08-07T12:47:14;3.47;;;1.80;;
21999;SDS011;11164;48.818;2.322;2023-08-07T12:49:39;4.85;;;1.70;;
21999;SDS011;11164;48.818;2.322;2023-08-07T12:52:04;3.88;;;1.80;;
21999;SDS011;11164;48.818;2.322;2023-08-07T12:54:30;4.07;;;1.77;;
21999;SDS011;11164;48.818;2.322;2023-08-07T12:56:55;4.72;;;2.20;;
21999;SDS011;11164;48.818;2.322;2023-08-07T12:59:22;4.20;;;1.80;;
21999;SDS011;11164;48.818;2.322;2023-08-07T13:01:47;4.57;;;2.00;;
21999;SDS011;11164;48.818;2.322;2023-08-07T13:04:13;4.10;;;1.70;;
21999;SDS011;11164;48.818;2.322;2023-08-07T13:06:40;4.60;;;1.70;;
21999;SDS011;11164;48.818;2.322;2023-08-07T13:09:06;4.93;;;1.60;;
21999;SDS011;11164;48.818;2.322;2023-08-07T13:11:32;4.13;;;1.73;;
21999;SDS011;11164;48.818;2.322;2023-08-07T13:13:57;4.30;;;1.80;;
21999;SDS011;11164;48.818;2.322;2023-08-07T13:16:22;5.05;;;2.00;;
21999;SDS011;11164;48.818;2.322;2023-08-07T13:18:48;3.75;;;1.70;;
21999;SDS011;11164;48.818;2.322;2023-08-07T13:21:13;4.05;;;1.70;;
21999;SDS011;11164;48.818;2.322;2023-08-07T13:23:39;3.28;;;1.60;;
21999;SDS011;11164;48.818;2.322;2023-08-07T13:26:04;4.57;;;1.60;;
21999;SDS011;11164;48.818;2.322;2023-08-07T13:28:29;3.70;;;1.60;;
21999;SDS011;11164;48.818;2.322;2023-08-07T13:30:55;4.35;;;1.70;;
21999;SDS011;11164;48.818;2.322;2023-08-07T13:33:21;3.60;;;1.58;;
21999;SDS011;11164;48.818;2.322;2023-08-07T13:35:46;3.75;;;1.48;;
21999;SDS011;11164;48.818;2.322;2023-08-07T13:38:12;3.70;;;1.60;;
21999;SDS011;11164;48.818;2.322;2023-08-07T13:40:38;4.78;;;1.60;;
21999;SDS011;11164;48.818;2.322;2023-08-07T13:43:03;3.75;;;1.50;;
21999;SDS011;11164;48.818;2.322;2023-08-07T13:45:32;4.15;;;1.52;;
21999;SDS011;11164;48.818;2.322;2023-08-07T13:47:58;4.43;;;1.70;;
21999;SDS011;11164;48.818;2.322;2023-08-07T13:50:24;4.85;;;1.63;;
21999;SDS011;11164;48.818;2.322;2023-08-07T13:52:50;3.80;;;1.65;;
21999;SDS011;11164;48.818;2.322;2023-08-07T13:55:15;3.83;;;1.57;;
21999;SDS011;11164;48.818;2.322;2023-08-07T13:57:40;4.68;;;1.50;;
21999;SDS011;11164;48.818;2.322;2023-08-07T14:00:06;7.18;;;1.88;;
21999;SDS011;11164;48.818;2.322;2023-08-07T14:02:33;3.58;;;1.95;;
21999;SDS011;11164;48.818;2.322;2023-08-07T14:04:59;6.03;;;2.00;;
21999;SDS011;11164;48.818;2.322;2023-08-07T14:07:25;4.30;;;1.52;;
21999;SDS011;11164;48.818;2.322;2023-08-07T14:09:50;4.50;;;1.80;;
21999;SDS011;11164;48.818;2.322;2023-08-07T14:12:15;5.50;;;2.00;;
21999;SDS011;11164;48.818;2.322;2023-08-07T14:14:41;3.25;;;1.40;;
21999;SDS011;11164;48.818;2.322;2023-08-07T14:17:06;4.20;;;1.60;;
21999;SDS011;11164;48.818;2.322;2023-08-07T14:19:31;4.57;;;1.67;;
21999;SDS011;11164;48.818;2.322;2023-08-07T14:21:57;3.95;;;1.40;;
21999;SDS011;11164;48.818;2.322;2023-08-07T14:24:22;5.68;;;1.42;;
21999;SDS011;11164;48.818;2.322;2023-08-07T14:26:48;4.72;;;1.40;;
21999;SDS011;11164;48.818;2.322;2023-08-07T14:29:13;4.65;;;2.00;;
21999;SDS011;11164;48.818;2.322;2023-08-07T14:31:39;2.85;;;1.33;;
21999;SDS011;11164;48.818;2.322;2023-08-07T14:34:04;5.88;;;1.50;;
21999;SDS011;11164;48.818;2.322;2023-08-07T14:36:30;5.07;;;1.70;;
21999;SDS011;11164;48.818;2.322;2023-08-07T14:38:55;5.22;;;1.55;;
21999;SDS011;11164;48.818;2.322;2023-08-07T14:41:20;3.95;;;1.50;;
21999;SDS011;11164;48.818;2.322;2023-08-07T14:43:46;3.70;;;1.50;;
21999;SDS011;11164;48.818;2.322;2023-08-07T14:46:12;4.30;;;1.55;;
21999;SDS011;11164;48.818;2.322;2023-08-07T14:48:38;3.05;;;1.30;;
21999;SDS011;11164;48.818;2.322;2023-08-07T14:51:03;5.90;;;2.10;;
21999;SDS011;11164;48.818;2.322;2023-08-07T14:53:29;4.30;;;1.70;;